Westville, Texas
Current Conditions -  °F | °C
As of 9:55 AM on Friday 21 Nov 2014 (Local Time) from KDKR Reporting Station
Overcast Overcast  
Wind Chill: 64°   Ceiling: 700
Heat Index: 64°   Visibility: 9mi
Dew Point: 64°   Wind: 6mph
Humidity: 100%   Direction: 120°ESE
Pressure: 30.2"   Gusts: NA
Location:  30.9905°N, 95.3368°W
Report Text: KDKR 211555Z AUTO 12005KT 9SM BKN007 OVC013 18/18 A3020 RMK AO2 P0001
Loading
Personal Weather Stations






























Interactive Weather Map New forecast layout! Learn more

10-Day Weather Forecast

Advertisements
Track Severe Weather on mobile